createdAt,value
2023-04-03T00:00:39.116Z,6.130
2023-04-03T00:01:40.343Z,6.138
2023-04-03T00:02:37.280Z,6.133
2023-04-03T00:03:37.088Z,6.125
2023-04-03T00:04:37.147Z,6.106
2023-04-03T00:05:37.096Z,6.078
2023-04-03T00:06:37.007Z,6.063
2023-04-03T00:07:37.162Z,6.046
2023-04-03T00:08:37.135Z,6.070
2023-04-03T00:09:37.207Z,6.050
2023-04-03T00:10:37.443Z,6.051
2023-04-03T00:11:37.262Z,6.078
2023-04-03T00:12:36.480Z,6.083
2023-04-03T00:13:36.994Z,6.076
2023-04-03T00:14:36.504Z,6.078
2023-04-03T00:15:37.068Z,6.045
2023-04-03T00:16:36.603Z,6.041
2023-04-03T00:17:37.116Z,6.016
2023-04-03T00:18:37.148Z,6.031
2023-04-03T00:19:36.410Z,6.023
2023-04-03T00:20:37.164Z,6.018
2023-04-03T00:21:36.741Z,6.008
2023-04-03T00:22:37.600Z,6
2023-04-03T00:23:37.572Z,5.988
2023-04-03T00:24:36.798Z,5.974
2023-04-03T00:25:37.396Z,5.968
2023-04-03T00:26:37.030Z,5.998
2023-04-03T00:27:36.819Z,5.989
2023-04-03T00:28:37.131Z,5.971
2023-04-03T00:29:36.603Z,5.981
2023-04-03T00:30:37.771Z,5.968
2023-04-03T00:31:37.171Z,5.989
2023-04-03T00:32:37.508Z,5.989
2023-04-03T00:34:08.491Z,5.975
2023-04-03T00:34:40.096Z,5.962
2023-04-03T00:35:37.078Z,5.949
2023-04-03T00:36:38.305Z,5.958
2023-04-03T00:37:36.784Z,5.964
2023-04-03T00:38:37.439Z,5.962
2023-04-03T00:39:37.470Z,5.978
2023-04-03T00:40:38.384Z,5.984
2023-04-03T00:41:37.730Z,5.981
2023-04-03T00:42:37.503Z,5.969
2023-04-03T00:43:37.335Z,5.953
2023-04-03T00:44:37.180Z,5.947
2023-04-03T00:45:37.575Z,5.926
2023-04-03T00:46:37.184Z,5.925
2023-04-03T00:47:36.535Z,5.934
2023-04-03T00:48:37.173Z,5.938
2023-04-03T00:49:36.713Z,5.932
2023-04-03T00:50:37.361Z,5.928
2023-04-03T00:51:37.107Z,5.915
2023-04-03T00:52:36.422Z,5.895
2023-04-03T00:53:36.886Z,5.912
2023-04-03T00:54:37.418Z,5.921
2023-04-03T00:55:36.358Z,5.926
2023-04-03T00:56:37.266Z,5.925
2023-04-03T00:57:37.284Z,5.906
2023-04-03T00:58:36.957Z,5.901
2023-04-03T00:59:37.664Z,5.891
2023-04-03T01:00:38.764Z,5.896
2023-04-03T01:01:37.230Z,5.861
2023-04-03T01:02:36.930Z,5.868
2023-04-03T01:03:37.577Z,5.880
2023-04-03T01:04:38.027Z,5.869
2023-04-03T01:05:37.105Z,5.848
2023-04-03T01:06:36.802Z,5.840
2023-04-03T01:07:37.594Z,5.843
2023-04-03T01:08:37.089Z,5.853
2023-04-03T01:09:37.084Z,5.836
2023-04-03T01:10:36.797Z,5.846
2023-04-03T01:11:36.956Z,5.860
2023-04-03T01:12:37.446Z,5.841
2023-04-03T01:13:36.620Z,5.835
2023-04-03T01:14:37.468Z,5.828
2023-04-03T01:15:37.159Z,5.835
2023-04-03T01:16:37.038Z,5.820
2023-04-03T01:17:36.818Z,5.818
2023-04-03T01:18:37.478Z,5.816
2023-04-03T01:19:37.067Z,5.829
2023-04-03T01:20:37.044Z,5.826
2023-04-03T01:21:37.352Z,5.828
2023-04-03T01:22:37.012Z,5.811
2023-04-03T01:23:36.563Z,5.811
2023-04-03T01:24:37.136Z,5.828
2023-04-03T01:25:36.773Z,5.831
2023-04-03T01:26:37.637Z,5.815
2023-04-03T01:27:36.794Z,5.795
2023-04-03T01:28:37.415Z,5.798
2023-04-03T01:29:36.722Z,5.824
2023-04-03T01:30:38.371Z,5.816
2023-04-03T01:31:37.282Z,5.800
2023-04-03T01:32:37.081Z,5.788
2023-04-03T01:33:36.915Z,5.789
2023-04-03T01:34:37.904Z,5.788
2023-04-03T01:35:37.549Z,5.801
2023-04-03T01:36:36.892Z,5.804
2023-04-03T01:37:37.394Z,5.796
2023-04-03T01:38:36.999Z,5.800
2023-04-03T01:39:36.861Z,5.795
2023-04-03T01:40:37.633Z,5.786
2023-04-03T01:41:37.536Z,5.784
2023-04-03T01:42:36.895Z,5.769
2023-04-03T01:43:37.666Z,5.75
2023-04-03T01:44:37.368Z,5.726
2023-04-03T01:45:37.691Z,5.736
2023-04-03T01:46:37.206Z,5.744
2023-04-03T01:47:36.594Z,5.739
2023-04-03T01:48:37.149Z,5.690
2023-04-03T01:49:36.433Z,5.723
2023-04-03T01:50:37.046Z,5.738
2023-04-03T01:51:36.799Z,5.724
2023-04-03T01:52:42.380Z,5.703
2023-04-03T01:53:36.423Z,5.698
2023-04-03T01:54:37.039Z,5.698
2023-04-03T01:55:37.266Z,5.684
2023-04-03T01:56:36.781Z,5.690
2023-04-03T01:57:37.587Z,5.699
2023-04-03T01:58:37.303Z,5.703
2023-04-03T01:59:36.892Z,5.696
2023-04-03T02:00:39.087Z,5.701
2023-04-03T02:01:37.181Z,5.701
2023-04-03T02:02:37.193Z,5.691
2023-04-03T02:03:37.147Z,5.679
2023-04-03T02:04:37.006Z,5.656
2023-04-03T02:05:36.743Z,5.648
2023-04-03T02:06:37.405Z,5.661
2023-04-03T02:07:37.311Z,5.651
2023-04-03T02:08:36.960Z,5.637
2023-04-03T02:09:36.606Z,5.659
2023-04-03T02:10:37.908Z,5.661
2023-04-03T02:11:37.300Z,5.665
2023-04-03T02:12:37.216Z,5.665
2023-04-03T02:13:36.987Z,5.656
2023-04-03T02:14:36.677Z,5.651
2023-04-03T02:15:37.931Z,5.657
2023-04-03T02:16:37.370Z,5.638
2023-04-03T02:17:37.205Z,5.631
2023-04-03T02:18:37.057Z,5.634
2023-04-03T02:19:37.446Z,5.636
2023-04-03T02:20:37.476Z,5.630
2023-04-03T02:21:37.271Z,5.611
2023-04-03T02:22:36.932Z,5.598
2023-04-03T02:23:37.487Z,5.572
2023-04-03T02:25:08.028Z,5.572
2023-04-03T02:25:40.080Z,5.559
2023-04-03T02:26:36.997Z,5.550
2023-04-03T02:27:36.585Z,5.532
2023-04-03T02:28:37.200Z,5.527
2023-04-03T02:29:37.246Z,5.515
2023-04-03T02:30:37.907Z,5.506
2023-04-03T02:31:36.737Z,5.493
2023-04-03T02:32:37.451Z,5.460
2023-04-03T02:33:37.526Z,5.460
2023-04-03T02:34:37.053Z,5.466
2023-04-03T02:35:37.052Z,5.489
2023-04-03T02:36:36.775Z,5.496
2023-04-03T02:37:37.067Z,5.489
2023-04-03T02:38:36.787Z,5.488
2023-04-03T02:39:37.204Z,5.480
2023-04-03T02:40:36.864Z,5.458
2023-04-03T02:41:36.673Z,5.458
2023-04-03T02:42:37.413Z,5.434
2023-04-03T02:43:36.613Z,5.418
2023-04-03T02:44:37.051Z,5.426
2023-04-03T02:45:37.275Z,5.429
2023-04-03T02:46:36.746Z,5.426
2023-04-03T02:47:38.027Z,5.440
2023-04-03T02:48:36.260Z,5.428
2023-04-03T02:49:36.832Z,5.394
2023-04-03T02:50:37.252Z,5.396
2023-04-03T02:51:36.834Z,5.383
2023-04-03T02:52:37.306Z,5.364
2023-04-03T02:53:36.884Z,5.355
2023-04-03T02:54:37.654Z,5.351
2023-04-03T02:55:37.250Z,5.331
2023-04-03T02:56:37.054Z,5.351
2023-04-03T02:57:37.236Z,5.341
2023-04-03T02:58:36.843Z,5.348
2023-04-03T02:59:37.282Z,5.341
2023-04-03T03:00:38.677Z,5.368
2023-04-03T03:01:37.755Z,5.375
2023-04-03T03:02:37.014Z,5.366
2023-04-03T03:03:36.659Z,5.344
2023-04-03T03:04:37.630Z,5.340
2023-04-03T03:05:37.397Z,5.335
2023-04-03T03:06:36.939Z,5.326
2023-04-03T03:07:37.933Z,5.298
2023-04-03T03:08:37.374Z,5.293
2023-04-03T03:09:37.170Z,5.280
2023-04-03T03:10:37.467Z,5.268
2023-04-03T03:11:37.393Z,5.275
2023-04-03T03:12:37.329Z,5.266
2023-04-03T03:13:37.149Z,5.264
2023-04-03T03:14:36.632Z,5.256
2023-04-03T03:15:37.772Z,5.215
2023-04-03T03:16:37.641Z,5.191
2023-04-03T03:17:37.482Z,5.168
2023-04-03T03:18:37.083Z,5.166
2023-04-03T03:19:37.270Z,5.163
2023-04-03T03:20:37.395Z,5.144
2023-04-03T03:21:37.205Z,5.141
2023-04-03T03:22:37.024Z,5.110
2023-04-03T03:23:36.801Z,5.135
2023-04-03T03:24:37.274Z,5.119
2023-04-03T03:25:37.984Z,5.106
2023-04-03T03:26:37.446Z,5.101
2023-04-03T03:27:37.100Z,5.091
2023-04-03T03:28:36.450Z,5.099
2023-04-03T03:29:37.223Z,5.114
2023-04-03T03:30:36.799Z,5.093
2023-04-03T03:31:37.489Z,5.085
2023-04-03T03:32:37.350Z,5.086
2023-04-03T03:33:36.801Z,5.090
2023-04-03T03:34:37.281Z,5.098
2023-04-03T03:35:36.896Z,5.065
2023-04-03T03:36:36.836Z,5.083
2023-04-03T03:37:37.566Z,5.105
2023-04-03T03:38:37.155Z,5.094
2023-04-03T03:39:37.135Z,5.090
2023-04-03T03:40:36.633Z,5.076
2023-04-03T03:41:37.203Z,5.061
2023-04-03T03:42:38.036Z,5.061
2023-04-03T03:43:36.658Z,5.030
2023-04-03T03:44:37.363Z,5.023
2023-04-03T03:45:37.663Z,5.024
2023-04-03T03:46:37.830Z,5.031
2023-04-03T03:47:37.785Z,5.026
2023-04-03T03:48:37.357Z,5.048
2023-04-03T03:49:36.753Z,5.027
2023-04-03T03:50:38.004Z,5.030
2023-04-03T03:51:36.873Z,5.032
2023-04-03T03:52:37.489Z,5.017
2023-04-03T03:53:36.985Z,5.010
2023-04-03T03:54:37.190Z,4.998
2023-04-03T03:55:37.200Z,5.021
2023-04-03T03:56:36.975Z,5.007
2023-04-03T03:57:37.835Z,5.015
2023-04-03T03:58:37.860Z,5.004
2023-04-03T03:59:37.340Z,4.986
2023-04-03T04:00:38.058Z,4.955
2023-04-03T04:01:50.750Z,4.961
2023-04-03T04:02:38.081Z,4.969
2023-04-03T04:03:37.265Z,4.975
2023-04-03T04:04:37.144Z,4.965
2023-04-03T04:05:37.015Z,4.936
2023-04-03T04:06:36.909Z,4.941
2023-04-03T04:07:37.798Z,4.923
2023-04-03T04:08:37.430Z,4.945
2023-04-03T04:09:37.106Z,4.940
2023-04-03T04:10:36.914Z,4.943
2023-04-03T04:11:37.877Z,4.931
2023-04-03T04:12:37.851Z,4.936
2023-04-03T04:13:37.688Z,4.908
2023-04-03T04:14:37.510Z,4.909
2023-04-03T04:15:37.647Z,4.913
2023-04-03T04:16:38.113Z,4.885
2023-04-03T04:17:37.137Z,4.824
2023-04-03T04:18:37.140Z,4.786
2023-04-03T04:19:36.624Z,4.815
2023-04-03T04:20:37.846Z,4.829
2023-04-03T04:21:37.370Z,4.811
2023-04-03T04:22:37.519Z,4.784
2023-04-03T04:23:37.531Z,4.769
2023-04-03T04:24:39.738Z,4.755
2023-04-03T04:25:37.267Z,4.769
2023-04-03T04:26:36.774Z,4.764
2023-04-03T04:27:37.235Z,4.763
2023-04-03T04:28:36.887Z,4.758
2023-04-03T04:30:08.560Z,4.763
2023-04-03T04:30:40.560Z,4.760
2023-04-03T04:31:36.989Z,4.760
2023-04-03T04:32:36.919Z,4.743
2023-04-03T04:33:37.586Z,4.731
2023-04-03T04:34:37.051Z,4.736
2023-04-03T04:35:37.531Z,4.721
2023-04-03T04:36:38.194Z,4.726
2023-04-03T04:37:37.374Z,4.726
2023-04-03T04:38:37.105Z,4.670
2023-04-03T04:39:37.860Z,4.666
2023-04-03T04:40:37.707Z,4.655
2023-04-03T04:41:37.377Z,4.670
2023-04-03T04:42:37.540Z,4.670
2023-04-03T04:43:37.388Z,4.644
2023-04-03T04:44:37.300Z,4.611
2023-04-03T04:45:37.464Z,4.566
2023-04-03T04:46:38.787Z,4.558
2023-04-03T04:47:37.889Z,4.554
2023-04-03T04:48:36.985Z,4.528
2023-04-03T04:49:37.172Z,4.5
2023-04-03T04:50:37.112Z,4.506
2023-04-03T04:51:44.779Z,4.466
2023-04-03T04:52:37.739Z,4.465
2023-04-03T04:53:36.990Z,4.488
2023-04-03T04:54:37.199Z,4.476
2023-04-03T04:55:37.968Z,4.481
2023-04-03T04:56:37.468Z,4.466
2023-04-03T04:57:37.061Z,4.474
2023-04-03T04:58:36.935Z,4.473
2023-04-03T04:59:37.804Z,4.425
2023-04-03T05:00:38.893Z,4.385
2023-04-03T05:01:37.649Z,4.375
2023-04-03T05:02:37.746Z,4.348
2023-04-03T05:03:37.491Z,4.351
2023-04-03T05:04:37.207Z,4.363
2023-04-03T05:05:37.144Z,4.358
2023-04-03T05:06:37.319Z,4.320
2023-04-03T05:07:37.181Z,4.300
2023-04-03T05:08:36.905Z,4.275
2023-04-03T05:09:37.406Z,4.236
2023-04-03T05:10:36.932Z,4.219
2023-04-03T05:11:39.585Z,4.201
2023-04-03T05:12:37.744Z,4.181
2023-04-03T05:13:38.786Z,4.161
2023-04-03T05:14:37.484Z,4.176
2023-04-03T05:15:37.538Z,4.202
2023-04-03T05:16:37.732Z,4.227
2023-04-03T05:17:37.790Z,4.257
2023-04-03T05:18:37.633Z,4.272
2023-04-03T05:19:37.636Z,4.263
2023-04-03T05:20:37.763Z,4.217
2023-04-03T05:21:37.960Z,4.257
2023-04-03T05:22:37.615Z,4.314
2023-04-03T05:23:37.175Z,4.340
2023-04-03T05:24:37.608Z,4.318
2023-04-03T05:25:41.435Z,4.265
2023-04-03T05:26:37.361Z,4.267
2023-04-03T05:27:37.351Z,4.260
2023-04-03T05:28:37.524Z,4.304
2023-04-03T05:29:37.212Z,4.309
2023-04-03T05:30:37.925Z,4.343
2023-04-03T05:31:37.792Z,4.323
2023-04-03T05:32:38.153Z,4.304
2023-04-03T05:33:37.189Z,4.257
2023-04-03T05:34:37.153Z,4.265
2023-04-03T05:35:37.772Z,4.274
2023-04-03T05:36:37.234Z,4.288
2023-04-03T05:37:37.700Z,4.280
2023-04-03T05:38:37.924Z,4.298
2023-04-03T05:39:37.210Z,4.315
2023-04-03T05:40:37.305Z,4.269
2023-04-03T05:41:37.680Z,4.235
2023-04-03T05:42:37.680Z,4.266
2023-04-03T05:43:37.413Z,4.303
2023-04-03T05:44:37.089Z,4.288
2023-04-03T05:45:37.047Z,4.288
2023-04-03T05:46:37.639Z,4.321
2023-04-03T05:47:37.852Z,4.335
2023-04-03T05:48:37.185Z,4.316
2023-04-03T05:49:37.250Z,4.298
2023-04-03T05:50:37.722Z,4.25
2023-04-03T05:51:37.112Z,4.228
2023-04-03T05:52:37.332Z,4.255
2023-04-03T05:53:36.888Z,4.228
2023-04-03T05:54:38.098Z,4.203
2023-04-03T05:55:37.065Z,4.183
2023-04-03T05:56:36.943Z,4.170
2023-04-03T05:57:37.949Z,4.221
2023-04-03T05:58:37.196Z,4.230
2023-04-03T05:59:37.321Z,4.236
2023-04-03T06:00:38.317Z,4.231
2023-04-03T06:01:37.739Z,4.236
2023-04-03T06:02:37.553Z,4.253
2023-04-03T06:03:39.561Z,4.251
2023-04-03T06:04:37.613Z,4.25
2023-04-03T06:05:38.077Z,4.261
2023-04-03T06:06:42.099Z,4.263
2023-04-03T06:07:37.103Z,4.244
2023-04-03T06:08:36.717Z,4.271
2023-04-03T06:09:37.492Z,4.268
2023-04-03T06:10:38.382Z,4.244
2023-04-03T06:11:37.693Z,4.251
2023-04-03T06:12:38.648Z,4.261
2023-04-03T06:13:38.100Z,4.269
2023-04-03T06:14:37.613Z,4.271
2023-04-03T06:15:37.610Z,4.253
2023-04-03T06:16:39.498Z,4.269
2023-04-03T06:17:37.762Z,4.268
2023-04-03T06:18:37.560Z,4.276
2023-04-03T06:19:37.477Z,4.251
2023-04-03T06:20:45.443Z,4.253
2023-04-03T06:21:37.899Z,4.269
2023-04-03T06:22:51.608Z,4.276
2023-04-03T06:23:37.470Z,4.266
2023-04-03T06:24:51.653Z,4.266
2023-04-03T06:25:38.309Z,4.295
2023-04-03T06:26:36.805Z,4.328
2023-04-03T06:27:37.599Z,4.328
2023-04-03T06:28:37.371Z,4.348
2023-04-03T06:29:37.374Z,4.364
2023-04-03T06:30:38.222Z,4.353
2023-04-03T06:31:37.553Z,4.353
2023-04-03T06:32:37.520Z,4.351
2023-04-03T06:33:37.488Z,4.373
2023-04-03T06:34:37.381Z,4.349
2023-04-03T06:35:37.266Z,4.361
2023-04-03T06:36:56.583Z,4.373
2023-04-03T06:37:38.181Z,4.408
2023-04-03T06:38:56.511Z,4.416
2023-04-03T06:39:37.401Z,4.428
2023-04-03T06:40:37.872Z,4.431
2023-04-03T06:41:37.383Z,4.446
2023-04-03T06:42:42.641Z,4.413
2023-04-03T06:43:39.099Z,4.403
2023-04-03T06:44:42.452Z,4.426
2023-04-03T06:45:38.115Z,4.443
2023-04-03T06:46:37.302Z,4.446
2023-04-03T06:47:37.742Z,4.438
2023-04-03T06:48:37.862Z,4.460
2023-04-03T06:49:37.731Z,4.489
2023-04-03T06:50:38.291Z,4.512
2023-04-03T06:51:37.223Z,4.510
2023-04-03T06:52:37.329Z,4.488
2023-04-03T06:53:37.471Z,4.518
2023-04-03T06:54:37.318Z,4.531
2023-04-03T06:55:37.943Z,4.550
2023-04-03T06:56:38.172Z,4.597
2023-04-03T06:57:37.116Z,4.618
2023-04-03T06:58:37.664Z,4.637
2023-04-03T06:59:37.838Z,4.622
2023-04-03T07:00:38.707Z,4.622
2023-04-03T07:01:37.947Z,4.639
2023-04-03T07:02:37.090Z,4.671
2023-04-03T07:03:37.147Z,4.665
2023-04-03T07:04:37.083Z,4.685
2023-04-03T07:05:37.637Z,4.722
2023-04-03T07:06:37.680Z,4.718
2023-04-03T07:07:37.448Z,4.736
2023-04-03T07:08:37.725Z,4.778
2023-04-03T07:09:37.524Z,4.800
2023-04-03T07:10:38.485Z,4.833
2023-04-03T07:11:38.624Z,4.855
2023-04-03T07:12:38.251Z,4.824
2023-04-03T07:13:37.368Z,4.811
2023-04-03T07:14:37.429Z,4.828
2023-04-03T07:15:37.768Z,4.869
2023-04-03T07:17:37.270Z,4.916
2023-04-03T07:18:37.111Z,4.893
2023-04-03T07:19:36.963Z,4.921
2023-04-03T07:20:37.746Z,4.916
2023-04-03T07:21:37.993Z,4.891
2023-04-03T07:22:36.965Z,4.923
2023-04-03T07:23:37.700Z,4.936
2023-04-03T07:24:37.885Z,4.969
2023-04-03T07:25:38.431Z,4.963
2023-04-03T07:26:37.608Z,4.973
2023-04-03T07:27:37.628Z,4.989
2023-04-03T07:28:37.244Z,5.039
2023-04-03T07:29:37.684Z,5.083
2023-04-03T07:30:37.720Z,5.105
2023-04-03T07:31:37.778Z,5.135
2023-04-03T07:32:38.252Z,5.126
2023-04-03T07:33:37.610Z,5.130
2023-04-03T07:34:37.585Z,5.139
2023-04-03T07:35:37.935Z,5.173
2023-04-03T07:36:37.429Z,5.190
2023-04-03T07:37:37.572Z,5.226
2023-04-03T07:38:37.720Z,5.236
2023-04-03T07:39:38.543Z,5.251
2023-04-03T07:40:37.878Z,5.298
2023-04-03T07:41:38.011Z,5.318
2023-04-03T07:42:38.153Z,5.351
2023-04-03T07:43:37.074Z,5.344
2023-04-03T07:44:36.938Z,5.328
2023-04-03T07:45:38.355Z,5.343
2023-04-03T07:46:37.575Z,5.389
2023-04-03T07:47:37.408Z,5.381
2023-04-03T07:48:37.177Z,5.406
2023-04-03T07:49:39.595Z,5.418
2023-04-03T07:50:37.770Z,5.446
2023-04-03T07:51:37.900Z,5.473
2023-04-03T07:52:37.797Z,5.433
2023-04-03T07:53:37.458Z,5.429
2023-04-03T07:54:37.678Z,5.460
2023-04-03T07:55:37.901Z,5.454
2023-04-03T07:56:37.291Z,5.476
2023-04-03T07:57:37.654Z,5.498
2023-04-03T07:58:37.444Z,5.496
2023-04-03T07:59:37.804Z,5.546
2023-04-03T08:00:39.100Z,5.541
2023-04-03T08:01:36.925Z,5.565
2023-04-03T08:02:37.848Z,5.591
2023-04-03T08:03:37.705Z,5.666
2023-04-03T08:04:40.301Z,5.708
2023-04-03T08:05:37.417Z,5.708
2023-04-03T08:06:46.484Z,5.658
2023-04-03T08:07:37.223Z,5.678
2023-04-03T08:08:37.156Z,5.675
2023-04-03T08:09:37.322Z,5.746
2023-04-03T08:10:38.154Z,5.769
2023-04-03T08:11:37.450Z,5.786
2023-04-03T08:12:37.856Z,5.838
2023-04-03T08:13:38.060Z,5.855
2023-04-03T08:14:37.502Z,5.849
2023-04-03T08:15:37.728Z,5.873
2023-04-03T08:16:37.754Z,5.933
2023-04-03T08:17:37.570Z,5.952
2023-04-03T08:18:37.540Z,5.927
2023-04-03T08:19:41.183Z,5.932
2023-04-03T08:20:37.188Z,5.964
2023-04-03T08:21:37.718Z,6.021
2023-04-03T08:22:37.750Z,6.021
2023-04-03T08:23:37.782Z,6.032
2023-04-03T08:24:39.368Z,6.085
2023-04-03T08:25:37.091Z,6.081
2023-04-03T08:26:36.870Z,6.071
2023-04-03T08:27:37.522Z,6.056
2023-04-03T08:28:37.439Z,6.057
2023-04-03T08:29:37.073Z,6.064
2023-04-03T08:30:37.350Z,6.059
2023-04-03T08:31:37.807Z,6.084
2023-04-03T08:32:37.603Z,6.090
2023-04-03T08:33:37.430Z,6.092
2023-04-03T08:34:37.719Z,6.096
2023-04-03T08:35:38.471Z,6.101
2023-04-03T08:36:37.805Z,6.098
2023-04-03T08:37:42.579Z,6.116
2023-04-03T08:38:37.054Z,6.121
2023-04-03T08:39:36.973Z,6.099
2023-04-03T08:40:37.954Z,6.142
2023-04-03T08:41:37.995Z,6.165
2023-04-03T08:42:37.126Z,6.208
2023-04-03T08:43:37.441Z,6.208
2023-04-03T08:44:38.406Z,6.208
2023-04-03T08:45:37.351Z,6.203
2023-04-03T08:46:37.562Z,6.215
2023-04-03T08:47:51.916Z,6.218
2023-04-03T08:48:37.403Z,6.226
2023-04-03T08:49:52.357Z,6.25
2023-04-03T08:50:37.622Z,6.258
2023-04-03T08:51:37.797Z,6.296
2023-04-03T08:52:37.490Z,6.313
2023-04-03T08:53:37.663Z,6.340
2023-04-03T08:54:37.495Z,6.344
2023-04-03T08:55:37.969Z,6.349
2023-04-03T08:56:37.122Z,6.391
2023-04-03T08:57:37.491Z,6.448
2023-04-03T08:58:37.473Z,6.421
2023-04-03T08:59:37.130Z,6.485
2023-04-03T09:00:38.170Z,6.481
2023-04-03T09:01:37.419Z,6.480
2023-04-03T09:02:38.118Z,6.466
2023-04-03T09:03:37.585Z,6.469
2023-04-03T09:04:37.909Z,6.491
2023-04-03T09:05:38.641Z,6.513
2023-04-03T09:06:39.256Z,6.551
2023-04-03T09:07:38.000Z,6.568
2023-04-03T09:08:37.172Z,6.605
2023-04-03T09:09:36.807Z,6.664
2023-04-03T09:10:38.423Z,6.683
2023-04-03T09:11:37.764Z,6.683
2023-04-03T09:12:37.542Z,6.614
2023-04-03T09:13:45.521Z,6.636
2023-04-03T09:14:36.945Z,6.660
2023-04-03T09:15:52.960Z,6.698
2023-04-03T09:16:37.001Z,6.643
2023-04-03T09:17:59.419Z,6.673
2023-04-03T09:18:37.195Z,6.756
2023-04-03T09:19:37.550Z,6.758
2023-04-03T09:20:38.257Z,6.784
2023-04-03T09:21:37.138Z,6.833
2023-04-03T09:22:45.491Z,6.833
2023-04-03T09:23:37.475Z,6.823
2023-04-03T09:24:37.866Z,6.796
2023-04-03T09:25:38.520Z,6.758
2023-04-03T09:26:37.758Z,6.795
2023-04-03T09:27:38.542Z,6.853
2023-04-03T09:28:46.881Z,6.851
2023-04-03T09:29:37.203Z,6.849
2023-04-03T09:30:37.905Z,6.831
2023-04-03T09:31:37.196Z,6.875
2023-04-03T09:32:37.477Z,6.881
2023-04-03T09:33:37.699Z,6.820
2023-04-03T09:34:37.612Z,6.800
2023-04-03T09:35:59.017Z,6.851
2023-04-03T09:36:37.241Z,6.883
2023-04-03T09:37:38.609Z,6.869
2023-04-03T09:38:37.804Z,6.849
2023-04-03T09:39:37.570Z,6.880
2023-04-03T09:40:37.719Z,6.903
2023-04-03T09:41:37.775Z,6.853
2023-04-03T09:42:37.575Z,6.863
2023-04-03T09:44:08.690Z,6.868
2023-04-03T09:44:40.194Z,6.898
2023-04-03T09:45:37.329Z,6.873
2023-04-03T09:46:37.640Z,6.855
2023-04-03T09:47:37.675Z,6.821
2023-04-03T09:48:37.541Z,6.813
2023-04-03T09:49:37.305Z,6.815
2023-04-03T09:50:37.956Z,6.863
2023-04-03T09:51:37.041Z,6.846
2023-04-03T09:52:39.299Z,6.912
2023-04-03T09:53:36.968Z,6.989
2023-04-03T09:54:37.104Z,7.037
2023-04-03T09:55:37.011Z,7.047
2023-04-03T09:56:37.088Z,7.044
2023-04-03T10:02:33.927Z,7.019
2023-04-03T10:03:34.823Z,7.155
2023-04-03T10:04:34.320Z,7.151
2023-04-03T10:05:34.085Z,7.096
2023-04-03T10:06:33.969Z,7.033
2023-04-03T10:07:34.616Z,7.006
2023-04-03T10:08:34.656Z,7.010
2023-04-03T10:09:33.934Z,7.038
2023-04-03T10:10:34.934Z,7.135
2023-04-03T10:11:34.207Z,7.125
2023-04-03T10:12:34.263Z,7.203
2023-04-03T10:13:38.959Z,7.261
2023-04-03T10:14:35.021Z,7.271
2023-04-03T10:15:34.474Z,7.280
2023-04-03T10:16:34.550Z,7.244
2023-04-03T10:17:34.465Z,7.311
2023-04-03T10:18:38.021Z,7.343
2023-04-03T10:19:33.938Z,7.469
2023-04-03T10:20:37.747Z,7.463
2023-04-03T10:22:34.536Z,7.428
2023-04-03T10:23:33.976Z,7.423
2023-04-03T10:24:33.946Z,7.411
2023-04-03T10:25:34.399Z,7.486
2023-04-03T10:26:33.523Z,7.465
2023-04-03T10:27:34.364Z,7.496
2023-04-03T10:28:33.950Z,7.521
2023-04-03T10:29:33.981Z,7.670
2023-04-03T10:30:34.117Z,7.861
2023-04-03T10:31:34.228Z,7.946
2023-04-03T10:32:34.536Z,7.918
2023-04-03T10:33:34.142Z,7.770
2023-04-03T10:34:34.018Z,7.760
2023-04-03T10:35:33.934Z,7.795
2023-04-03T10:36:34.187Z,7.858
2023-04-03T10:37:33.681Z,7.878
2023-04-03T10:38:33.831Z,7.844
2023-04-03T10:39:34.341Z,7.836
2023-04-03T10:40:33.985Z,7.813
2023-04-03T10:41:34.018Z,7.860
2023-04-03T10:42:34.164Z,7.926
2023-04-03T10:43:34.183Z,7.907
2023-04-03T10:44:34.001Z,7.914
2023-04-03T10:45:34.107Z,7.873
2023-04-03T10:46:33.954Z,7.818
2023-04-03T10:47:35.081Z,7.823
2023-04-03T10:48:34.021Z,7.787
2023-04-03T10:49:33.491Z,7.742
2023-04-03T10:50:34.324Z,7.734
2023-04-03T10:51:33.770Z,7.685
2023-04-03T10:52:34.447Z,7.625
2023-04-03T10:53:34.367Z,7.607
2023-04-03T10:54:34.209Z,7.594
2023-04-03T10:55:34.539Z,7.664
2023-04-03T10:56:34.327Z,7.738
2023-04-03T10:57:34.098Z,7.849
2023-04-03T10:58:34.269Z,7.904
2023-04-03T10:59:34.601Z,7.972
2023-04-03T11:00:35.879Z,8.011
2023-04-03T11:01:34.577Z,8.078
2023-04-03T11:02:35.106Z,8.111
2023-04-03T11:03:34.463Z,8.116
2023-04-03T11:04:42.392Z,8.122
2023-04-03T11:05:34.443Z,8.095
2023-04-03T11:06:34.315Z,8.133
2023-04-03T11:07:34.652Z,8.136
2023-04-03T11:08:34.449Z,8.060
2023-04-03T11:09:34.293Z,8.086
2023-04-03T11:10:34.295Z,8.046
2023-04-03T11:11:34.285Z,8.078
2023-04-03T11:12:34.468Z,8.081
2023-04-03T11:13:34.331Z,8.121
2023-04-03T11:14:34.221Z,8.173
2023-04-03T11:15:34.096Z,8.216
2023-04-03T11:16:43.524Z,8.233
2023-04-03T11:17:34.346Z,8.211
2023-04-03T11:18:34.587Z,8.143
2023-04-03T11:19:34.474Z,8.145
2023-04-03T11:20:34.536Z,8.104
2023-04-03T11:21:34.170Z,8.066
2023-04-03T11:22:34.172Z,8.091
2023-04-03T11:24:34.006Z,8.128
2023-04-03T11:25:36.209Z,8.189
2023-04-03T11:26:34.670Z,8.176
2023-04-03T11:27:34.443Z,8.211
2023-04-03T11:28:53.330Z,8.274
2023-04-03T11:29:48.453Z,8.354
2023-04-03T11:30:34.589Z,8.316
2023-04-03T11:31:34.414Z,8.335
2023-04-03T11:32:42.161Z,8.364
2023-04-03T11:33:33.607Z,8.368
2023-04-03T11:34:42.141Z,8.398
2023-04-03T11:35:34.126Z,8.316
2023-04-03T11:36:46.301Z,8.273
2023-04-03T11:37:34.250Z,8.301
2023-04-03T11:38:55.896Z,8.326
2023-04-03T11:39:34.690Z,8.343
2023-04-03T11:40:34.173Z,8.373
2023-04-03T11:41:34.159Z,8.340
2023-04-03T11:42:34.434Z,8.314
2023-04-03T11:43:37.348Z,8.348
2023-04-03T11:44:36.898Z,8.414
2023-04-03T11:45:38.288Z,8.393
2023-04-03T11:46:37.256Z,8.335
2023-04-03T11:47:37.209Z,8.386
2023-04-03T11:48:39.955Z,8.346
2023-04-03T11:49:37.694Z,8.319
2023-04-03T11:50:37.500Z,8.359
2023-04-03T11:51:37.204Z,8.406
2023-04-03T11:52:37.030Z,8.463
2023-04-03T11:53:36.929Z,8.435
2023-04-03T11:55:37.305Z,8.488
2023-04-03T11:56:37.737Z,8.515
2023-04-03T11:57:37.984Z,8.571
2023-04-03T11:58:51.756Z,8.631
2023-04-03T11:59:38.456Z,8.706
2023-04-03T12:01:10.743Z,8.710
2023-04-03T12:01:42.047Z,8.743
2023-04-03T12:02:57.237Z,8.713
2023-04-03T12:03:38.680Z,8.664
2023-04-03T12:04:57.041Z,8.638
2023-04-03T12:05:37.930Z,8.643
2023-04-03T12:06:37.766Z,8.641
2023-04-03T12:07:37.439Z,8.661
2023-04-03T12:08:37.347Z,8.653
2023-04-03T12:09:37.342Z,8.649
2023-04-03T12:10:47.244Z,8.678
2023-04-03T12:11:37.469Z,8.694
2023-04-03T12:12:37.650Z,8.746
2023-04-03T12:13:37.708Z,8.817
2023-04-03T12:14:38.178Z,8.778
2023-04-03T12:15:38.061Z,8.779
2023-04-03T12:16:38.713Z,8.745
2023-04-03T12:17:38.504Z,8.75
2023-04-03T12:18:38.393Z,8.801
2023-04-03T12:19:46.605Z,8.857
2023-04-03T12:20:37.661Z,8.928
2023-04-03T12:21:37.965Z,8.913
2023-04-03T12:22:37.897Z,8.848
2023-04-03T12:23:38.021Z,8.805
2023-04-03T12:24:37.405Z,8.795
2023-04-03T12:25:37.776Z,8.810
2023-04-03T12:26:47.982Z,8.725
2023-04-03T12:27:38.307Z,8.770
2023-04-03T12:28:37.354Z,8.772
2023-04-03T12:29:38.817Z,8.776
2023-04-03T12:30:38.583Z,8.817
2023-04-03T12:31:37.994Z,8.772
2023-04-03T12:32:37.636Z,8.800
2023-04-03T12:33:38.249Z,8.963
2023-04-03T12:34:37.973Z,9.048
2023-04-03T12:35:38.596Z,9.114
2023-04-03T12:36:38.491Z,9.111
2023-04-03T12:37:38.029Z,9.090
2023-04-03T12:38:37.364Z,9.054
2023-04-03T12:39:38.066Z,8.973
2023-04-03T12:40:38.366Z,8.931
2023-04-03T12:41:37.958Z,8.949
2023-04-03T12:42:38.323Z,9.028
2023-04-03T12:43:37.913Z,9.064
2023-04-03T12:44:38.727Z,9.033
2023-04-03T12:45:38.153Z,9.081
2023-04-03T12:46:38.203Z,9.135
2023-04-03T12:47:38.132Z,8.994
2023-04-03T12:48:38.130Z,8.978
2023-04-03T12:49:37.832Z,9.006
2023-04-03T12:50:38.513Z,8.965
2023-04-03T12:51:37.486Z,8.898
2023-04-03T12:52:37.552Z,8.848
2023-04-03T12:53:38.251Z,8.911
2023-04-03T12:55:37.903Z,8.993
2023-04-03T12:57:37.648Z,8.956
2023-04-03T12:58:38.114Z,8.903
2023-04-03T12:59:37.339Z,8.970
2023-04-03T13:00:38.382Z,9.108
2023-04-03T13:01:37.700Z,9.183
2023-04-03T13:02:37.616Z,9.203
2023-04-03T13:03:38.419Z,9.229
2023-04-03T13:04:37.794Z,9.238